Time;durP1;ratioP1;P1;durP2;ratioP2;P2;SDS_P1;SDS_P2;PMS_P1;PMS_P2;Temp;Humidity;BMP_temperature;BMP_pressure;BME280_temperature;BME280_humidity;BME280_pressure;Samples;Min_cycle;Max_cycle;Signal;HPM_P1;HPM_P2
2023/10/24 00:00:51;;;;;;;7.00;4.70;;;;;;;10.66;100.00;100916.53;4957200;28;20268;-70
2023/10/24 00:03:17;;;;;;;7.03;5.07;;;;;;;10.60;100.00;100926.19;4962558;28;20198;-71
2023/10/24 00:05:42;;;;;;;7.00;5.03;;;;;;;10.53;100.00;100906.53;4960799;28;20619;-70
2023/10/24 00:08:23;;;;;;;6.77;4.83;;;;;;;10.11;100.00;100836.75;4908049;28;20214;-70
2023/10/24 00:10:48;;;;;;;6.93;5.50;;;;;;;10.57;100.00;100886.38;4977870;28;20500;-70
2023/10/24 00:13:14;;;;;;;7.57;5.20;;;;;;;10.55;100.00;100880.34;4961448;28;20187;-70
2023/10/24 00:15:39;;;;;;;7.53;5.47;;;;;;;10.38;100.00;100882.50;4958794;28;20222;-70
2023/10/24 00:18:04;;;;;;;7.73;4.47;;;;;;;10.53;100.00;100903.84;4954719;28;20194;-70
2023/10/24 00:20:30;;;;;;;6.47;5.03;;;;;;;10.66;100.00;100913.84;4962346;28;20207;-70
2023/10/24 00:22:55;;;;;;;9.13;5.73;;;;;;;10.62;100.00;100903.53;4961265;28;20194;-70
2023/10/24 00:25:21;;;;;;;9.03;5.83;;;;;;;10.70;100.00;100894.47;4956940;28;20195;-70
2023/10/24 00:27:46;;;;;;;6.90;4.83;;;;;;;10.42;100.00;100889.16;4959402;28;20194;-70
2023/10/24 00:30:12;;;;;;;7.90;5.70;;;;;;;10.51;100.00;100871.88;4961817;28;20222;-70
2023/10/24 00:32:37;;;;;;;8.93;5.40;;;;;;;10.59;100.00;100887.81;4960418;28;20234;-71
2023/10/24 00:35:03;;;;;;;8.70;5.80;;;;;;;10.63;100.00;100877.53;4963073;28;20241;-70
2023/10/24 00:37:29;;;;;;;8.67;5.50;;;;;;;10.60;100.00;100886.78;4961613;28;20646;-70
2023/10/24 00:39:54;;;;;;;7.03;5.17;;;;;;;10.45;100.00;100847.72;4959659;28;20474;-69
2023/10/24 00:42:20;;;;;;;7.47;5.13;;;;;;;10.45;100.00;100845.03;4954748;28;20555;-69
2023/10/24 00:44:46;;;;;;;7.23;5.10;;;;;;;10.57;100.00;100865.72;4960902;28;20194;-70
2023/10/24 00:47:13;;;;;;;7.10;4.80;;;;;;;9.81;100.00;100728.97;4960916;28;20190;-71
2023/10/24 00:49:38;;;;;;;6.80;4.40;;;;;;;10.65;100.00;100862.06;4959915;28;20816;-70
2023/10/24 00:52:04;;;;;;;10.20;5.13;;;;;;;10.62;100.00;100860.59;4957901;28;20450;-70
2023/10/24 00:54:32;;;;;;;8.27;5.17;;;;;;;10.61;100.00;100850.88;4961670;28;20558;-70
2023/10/24 00:56:57;;;;;;;7.67;5.33;;;;;;;10.57;100.00;100833.53;4962174;28;20866;-70
2023/10/24 00:59:25;;;;;;;7.33;4.60;;;;;;;10.15;100.00;100767.47;4958680;28;20569;-70
2023/10/24 01:01:51;;;;;;;6.30;4.70;;;;;;;10.76;100.00;100874.91;4961992;28;20190;-70
2023/10/24 01:04:18;;;;;;;10.00;5.30;;;;;;;10.68;100.00;100855.47;4960355;28;20516;-70
2023/10/24 01:06:44;;;;;;;9.43;5.57;;;;;;;10.92;100.00;100883.66;4976384;28;20454;-70
2023/10/24 01:09:10;;;;;;;7.47;5.03;;;;;;;10.53;100.00;100848.38;4961706;28;20468;-70
2023/10/24 01:11:37;;;;;;;7.37;4.90;;;;;;;10.84;100.00;100877.41;4958566;28;20818;-70
2023/10/24 01:14:02;;;;;;;6.27;4.97;;;;;;;10.85;100.00;100871.03;4961954;28;20446;-70
2023/10/24 01:16:29;;;;;;;9.03;5.33;;;;;;;10.80;100.00;100854.69;4973699;28;20870;-70
2023/10/24 01:18:54;;;;;;;7.27;5.10;;;;;;;10.92;100.00;100856.81;4958486;28;20221;-69
2023/10/24 01:21:20;;;;;;;5.67;4.37;;;;;;;10.94;100.00;100868.19;4961702;28;20451;-70
2023/10/24 01:23:46;;;;;;;8.23;5.43;;;;;;;10.90;100.00;100865.03;4958702;28;20190;-70
2023/10/24 01:26:16;;;;;;;7.33;5.30;;;;;;;10.94;100.00;100869.00;4977094;28;20677;-70
2023/10/24 01:28:42;;;;;;;7.57;4.90;;;;;;;10.85;100.00;100857.63;4957661;28;20450;-70
2023/10/24 01:31:07;;;;;;;9.53;5.60;;;;;;;10.94;100.00;100857.44;4960058;28;20433;-70
2023/10/24 01:33:32;;;;;;;6.57;4.73;;;;;;;10.92;100.00;100848.75;4963924;28;20265;-70
2023/10/24 01:35:58;;;;;;;8.90;5.47;;;;;;;10.50;100.00;100788.94;4958030;28;20573;-69
2023/10/24 01:38:23;;;;;;;8.40;5.30;;;;;;;10.80;100.00;100845.81;4961298;28;20226;-69
2023/10/24 01:40:49;;;;;;;7.40;5.70;;;;;;;10.88;100.00;100869.81;4955835;28;20469;-70
2023/10/24 01:43:14;;;;;;;8.37;5.47;;;;;;;10.78;100.00;100866.66;4958182;28;20205;-70
2023/10/24 01:45:40;;;;;;;6.47;5.10;;;;;;;10.77;100.00;100883.78;4963960;28;20198;-70
2023/10/24 01:48:05;;;;;;;6.93;5.47;;;;;;;10.75;100.00;100893.88;4972460;28;20202;-70
2023/10/24 01:50:30;;;;;;;9.50;6.10;;;;;;;10.66;100.00;100852.16;4962465;28;20217;-70
2023/10/24 01:52:58;;;;;;;7.10;5.17;;;;;;;10.88;100.00;100885.91;4954828;28;20194;-70
2023/10/24 01:55:23;;;;;;;9.20;6.13;;;;;;;10.74;100.00;100879.66;4977085;28;20190;-69
2023/10/24 01:57:49;;;;;;;6.63;4.57;;;;;;;10.84;100.00;100860.47;4960247;28;20453;-70
2023/10/24 02:00:15;;;;;;;8.70;5.53;;;;;;;10.79;100.00;100876.34;4955164;28;20214;-70
2023/10/24 02:02:41;;;;;;;9.80;6.10;;;;;;;10.90;100.00;100867.72;4962533;28;20444;-70
2023/10/24 02:05:06;;;;;;;7.83;5.53;;;;;;;10.79;100.00;100865.63;4960050;28;22016;-69
2023/10/24 02:07:32;;;;;;;9.13;6.00;;;;;;;10.58;100.00;100812.91;4955857;28;20190;-70
2023/10/24 02:09:57;;;;;;;7.63;5.20;;;;;;;10.77;100.00;100855.09;4965317;28;20202;-70
2023/10/24 02:12:24;;;;;;;8.67;4.60;;;;;;;10.81;100.00;100845.59;4962358;28;20569;-70
2023/10/24 02:14:49;;;;;;;8.30;5.73;;;;;;;10.90;100.00;100851.63;4957576;28;20216;-70
2023/10/24 02:17:15;;;;;;;8.33;5.90;;;;;;;10.85;100.00;100835.31;4957050;28;20933;-69
2023/10/24 02:19:41;;;;;;;8.83;5.77;;;;;;;10.64;100.00;100828.19;4956458;28;20218;-70
2023/10/24 02:22:06;;;;;;;8.90;5.90;;;;;;;10.75;100.00;100838.38;4959663;28;20187;-70
2023/10/24 02:24:32;;;;;;;8.03;5.80;;;;;;;10.92;100.00;100846.91;4957075;28;20209;-70
2023/10/24 02:26:57;;;;;;;7.80;5.23;;;;;;;10.96;100.00;100850.81;4960575;28;20203;-69
2023/10/24 02:29:22;;;;;;;6.87;5.40;;;;;;;11.05;100.00;100862.22;4962823;28;20218;-70
2023/10/24 02:31:48;;;;;;;6.77;5.47;;;;;;;10.89;100.00;100876.00;4975872;28;20653;-71
2023/10/24 02:34:13;;;;;;;8.57;5.40;;;;;;;11.03;100.00;100880.41;4956396;28;20189;-70
2023/10/24 02:36:39;;;;;;;8.27;6.00;;;;;;;10.78;100.00;100875.53;4957045;28;20206;-70
2023/10/24 02:39:04;;;;;;;7.20;5.83;;;;;;;10.93;100.00;100870.00;4952986;28;20219;-70
2023/10/24 02:41:29;;;;;;;9.47;6.20;;;;;;;10.65;100.00;100837.09;4964275;28;20200;-69
2023/10/24 02:43:55;;;;;;;6.67;5.07;;;;;;;10.68;100.00;100842.06;4957660;28;20254;-70
2023/10/24 02:46:20;;;;;;;7.43;5.57;;;;;;;10.75;100.00;100846.41;4961111;28;20205;-70
2023/10/24 02:48:46;;;;;;;8.63;6.50;;;;;;;10.86;100.00;100891.47;4953864;28;20215;-69
2023/10/24 02:51:11;;;;;;;9.67;5.90;;;;;;;10.88;100.00;100891.28;4968169;28;20204;-69
2023/10/24 02:53:37;;;;;;;9.77;5.87;;;;;;;10.88;100.00;100893.97;4961377;28;20195;-70
2023/10/24 02:56:03;;;;;;;7.93;5.50;;;;;;;10.13;100.00;100758.84;4956757;28;20581;-70
2023/10/24 02:58:28;;;;;;;8.90;6.73;;;;;;;10.96;100.00;100901.00;4957535;28;20544;-69
2023/10/24 03:00:54;;;;;;;8.17;5.50;;;;;;;10.81;100.00;100893.91;4962142;28;20273;-70
2023/10/24 03:03:19;;;;;;;9.10;6.40;;;;;;;10.92;100.00;100902.44;4962918;28;20665;-70
2023/10/24 03:05:45;;;;;;;7.40;5.13;;;;;;;10.87;100.00;100908.38;4962750;28;20202;-70
2023/10/24 03:08:10;;;;;;;6.70;5.00;;;;;;;10.49;100.00;100855.16;4962962;28;20205;-70
2023/10/24 03:10:40;;;;;;;8.00;5.70;;;;;;;10.78;100.00;100918.44;4965230;28;20699;-68
2023/10/24 03:13:05;;;;;;;10.87;5.70;;;;;;;10.77;100.00;100924.03;4962996;28;20225;-69
2023/10/24 03:15:33;;;;;;;11.10;5.80;;;;;;;10.68;100.00;100884.97;4961499;28;20508;-70
2023/10/24 03:17:58;;;;;;;8.87;5.50;;;;;;;10.81;100.00;100923.41;4962276;28;20187;-71
2023/10/24 03:20:25;;;;;;;8.70;5.23;;;;;;;10.76;100.00;100911.63;4960182;28;20876;-70
2023/10/24 03:22:51;;;;;;;8.00;5.37;;;;;;;10.92;100.00;100930.09;4960463;28;20201;-70
2023/10/24 03:25:16;;;;;;;8.37;5.70;;;;;;;10.77;100.00;100926.72;4973790;28;20445;-69
2023/10/24 03:27:42;;;;;;;8.10;5.87;;;;;;;10.85;100.00;100931.94;4962957;28;20206;-69
2023/10/24 03:30:08;;;;;;;6.90;4.70;;;;;;;10.83;100.00;100920.56;4961627;28;20215;-70
2023/10/24 03:32:33;;;;;;;7.53;5.00;;;;;;;10.91;100.00;100941.03;4961748;28;20206;-70
2023/10/24 03:34:58;;;;;;;7.37;5.20;;;;;;;10.88;100.00;100936.03;4963059;28;20445;-70
2023/10/24 03:37:24;;;;;;;6.70;5.20;;;;;;;10.80;100.00;100931.69;4961593;28;20190;-69
2023/10/24 03:39:49;;;;;;;6.73;5.30;;;;;;;10.76;100.00;100933.94;4963468;28;20221;-71
2023/10/24 03:42:15;;;;;;;7.30;5.13;;;;;;;11.08;100.00;100970.03;4962536;28;20190;-70
2023/10/24 03:44:41;;;;;;;7.67;5.10;;;;;;;10.98;100.00;100979.47;4962085;28;20727;-70
2023/10/24 03:47:07;;;;;;;7.10;4.90;;;;;;;10.89;100.00;100978.78;4964734;28;20197;-70
2023/10/24 03:49:32;;;;;;;6.30;4.73;;;;;;;10.44;100.00;100916.59;4973300;28;20482;-69
2023/10/24 03:51:58;;;;;;;7.43;5.50;;;;;;;10.81;100.00;101017.34;4980516;28;20186;-70
2023/10/24 03:54:23;;;;;;;8.53;5.30;;;;;;;10.75;100.00;101023.47;4966062;28;20194;-70
2023/10/24 03:56:49;;;;;;;7.80;5.57;;;;;;;10.94;100.00;101023.84;4964523;28;20274;-70
2023/10/24 03:59:14;;;;;;;8.10;5.53;;;;;;;10.84;100.00;101032.22;4962782;28;20757;-69
2023/10/24 04:01:41;;;;;;;6.67;4.67;;;;;;;10.88;100.00;101049.59;4955269;28;20418;-70
2023/10/24 04:04:06;;;;;;;7.37;4.90;;;;;;;10.90;100.00;101071.69;4969507;28;20195;-70
2023/10/24 04:06:34;;;;;;;7.67;5.03;;;;;;;10.89;100.00;101053.09;4978913;28;20822;-69
2023/10/24 04:09:04;;;;;;;7.10;5.07;;;;;;;11.03;100.00;101087.91;4963212;28;20215;-70
2023/10/24 04:11:30;;;;;;;6.93;5.13;;;;;;;10.92;100.00;101119.81;4976022;28;20442;-70
2023/10/24 04:13:55;;;;;;;6.30;5.10;;;;;;;11.06;100.00;101124.25;4963908;28;20819;-69
2023/10/24 04:16:20;;;;;;;7.53;5.17;;;;;;;10.93;100.00;101141.06;4961482;28;20206;-70
2023/10/24 04:18:47;;;;;;;11.93;5.53;;;;;;;10.95;100.00;101155.13;4960739;28;20302;-69
2023/10/24 04:21:16;;;;;;;6.50;5.00;;;;;;;11.10;100.00;101189.94;4962029;28;20194;-70
2023/10/24 04:23:41;;;;;;;7.40;5.10;;;;;;;11.14;100.00;101201.97;4963097;28;20529;-69
2023/10/24 04:26:07;;;;;;;8.10;5.93;;;;;;;10.94;100.00;101198.28;4961429;28;20453;-70
2023/10/24 04:28:33;;;;;;;7.80;5.60;;;;;;;11.21;100.00;101231.56;4958108;28;20273;-69
2023/10/24 04:30:58;;;;;;;7.07;5.40;;;;;;;11.14;100.00;101244.06;4960775;28;20948;-70
2023/10/24 04:33:24;;;;;;;9.00;5.93;;;;;;;10.61;100.00;101196.91;4960155;28;20194;-70
2023/10/24 04:35:50;;;;;;;7.00;5.50;;;;;;;10.96;100.00;101272.19;4962338;28;20194;-70
2023/10/24 04:38:17;;;;;;;10.23;6.03;;;;;;;11.00;100.00;101289.59;4958478;28;20186;-69
2023/10/24 04:40:43;;;;;;;7.40;5.43;;;;;;;10.56;100.00;101252.16;4964829;28;21044;-70
2023/10/24 04:43:09;;;;;;;7.50;5.97;;;;;;;10.96;100.00;101335.78;4965296;28;20438;-69
2023/10/24 04:45:38;;;;;;;7.50;5.33;;;;;;;11.00;100.00;101370.13;4963147;28;20216;-69
2023/10/24 04:48:04;;;;;;;6.70;5.53;;;;;;;10.94;100.00;101353.97;4961869;28;20450;-69
2023/10/24 04:50:30;;;;;;;8.10;5.60;;;;;;;11.11;100.00;101387.59;4962567;28;20457;-69
2023/10/24 04:52:56;;;;;;;6.40;5.00;;;;;;;11.14;100.00;101403.34;4960913;28;20456;-71
2023/10/24 04:55:22;;;;;;;8.97;5.87;;;;;;;11.09;100.00;101408.44;4965682;28;20532;-69
2023/10/24 04:57:48;;;;;;;7.70;5.13;;;;;;;11.03;100.00;101404.66;4966712;28;20237;-70
2023/10/24 05:00:14;;;;;;;7.77;5.67;;;;;;;11.16;100.00;101433.50;4960958;28;20481;-69
2023/10/24 05:02:41;;;;;;;6.70;4.83;;;;;;;11.17;100.00;101443.22;4963811;28;20496;-69
2023/10/24 05:05:07;;;;;;;8.60;5.63;;;;;;;10.99;100.00;101446.31;4967003;28;20209;-69
2023/10/24 05:07:32;;;;;;;8.27;5.90;;;;;;;10.88;100.00;101437.88;4966091;28;20442;-69
2023/10/24 05:09:58;;;;;;;8.80;5.60;;;;;;;10.93;100.00;101430.94;4964327;28;20210;-70
2023/10/24 05:12:24;;;;;;;6.53;5.33;;;;;;;11.03;100.00;101426.13;4965557;28;20218;-69
2023/10/24 05:14:49;;;;;;;7.23;5.67;;;;;;;11.12;100.00;101447.50;4966495;28;20257;-70
2023/10/24 05:17:14;;;;;;;7.13;4.87;;;;;;;11.03;100.00;101442.22;4966794;28;20190;-70
2023/10/24 05:19:43;;;;;;;7.93;5.37;;;;;;;11.17;100.00;101450.47;4962843;28;20238;-70
2023/10/24 05:22:10;;;;;;;7.90;6.20;;;;;;;10.76;100.00;101414.22;4961685;28;20194;-70
2023/10/24 05:24:36;;;;;;;7.80;5.77;;;;;;;11.18;100.00;101461.00;4966019;28;20449;-70
2023/10/24 05:27:02;;;;;;;6.90;5.23;;;;;;;10.89;100.00;101429.66;4981615;28;20430;-70
2023/10/24 05:29:27;;;;;;;7.93;5.33;;;;;;;11.14;100.00;101456.19;4964693;28;20517;-70
2023/10/24 05:31:52;;;;;;;6.77;5.83;;;;;;;11.12;100.00;101458.25;4966398;28;20186;-70
2023/10/24 05:34:18;;;;;;;7.20;5.63;;;;;;;11.08;100.00;101450.56;4966811;28;20252;-69
2023/10/24 05:36:43;;;;;;;7.47;5.87;;;;;;;11.25;100.00;101469.13;4973314;28;20221;-70
2023/10/24 05:39:08;;;;;;;8.60;6.37;;;;;;;11.00;100.00;101456.03;4964660;28;20218;-70
2023/10/24 05:41:34;;;;;;;7.23;5.90;;;;;;;11.00;100.00;101476.69;4972028;28;20561;-69
2023/10/24 05:43:59;;;;;;;9.70;5.80;;;;;;;10.75;100.00;101442.06;4966354;28;20740;-69
2023/10/24 05:46:25;;;;;;;7.80;5.30;;;;;;;10.95;100.00;101445.00;4966126;28;20221;-70
2023/10/24 05:48:50;;;;;;;9.40;6.60;;;;;;;10.95;100.00;101479.91;4964173;28;20586;-69
2023/10/24 05:51:28;;;;;;;6.80;5.30;;;;;;;10.94;100.00;101472.06;4964906;28;20217;-69
2023/10/24 05:53:54;;;;;;;7.83;4.97;;;;;;;10.50;100.00;101397.72;4979663;28;20678;-70
2023/10/24 05:56:19;;;;;;;6.10;5.13;;;;;;;10.94;100.00;101498.91;4965070;28;20430;-69
2023/10/24 05:58:45;;;;;;;6.80;5.60;;;;;;;11.14;100.00;101491.09;4962920;28;20214;-70
2023/10/24 06:01:11;;;;;;;6.97;5.77;;;;;;;11.05;100.00;101510.00;4966037;28;20635;-70
2023/10/24 06:03:36;;;;;;;7.20;5.60;;;;;;;10.95;100.00;101498.69;4963352;28;20182;-70
2023/10/24 06:06:02;;;;;;;5.87;4.90;;;;;;;11.02;100.00;101518.44;4965005;28;20423;-69
2023/10/24 06:08:27;;;;;;;7.33;5.93;;;;;;;11.02;100.00;101517.56;4965914;28;20213;-70
2023/10/24 06:11:01;;;;;;;7.20;5.83;;;;;;;10.93;100.00;101524.88;4981130;28;20213;-70
2023/10/24 06:13:27;;;;;;;6.77;5.50;;;;;;;10.97;100.00;101536.94;4964909;28;20182;-69
2023/10/24 06:15:52;;;;;;;7.50;5.20;;;;;;;11.06;100.00;101532.31;4962121;28;20441;-70
2023/10/24 06:18:19;;;;;;;8.37;5.90;;;;;;;10.90;100.00;101544.03;4965300;28;20493;-70
2023/10/24 06:20:44;;;;;;;8.03;6.10;;;;;;;11.01;100.00;101557.00;4977615;28;20206;-70
2023/10/24 06:23:10;;;;;;;7.63;5.30;;;;;;;10.99;100.00;101556.38;4963725;28;20509;-70
2023/10/24 06:25:42;;;;;;;8.20;5.87;;;;;;;11.07;100.00;101585.78;4964162;28;20189;-70
2023/10/24 06:28:08;;;;;;;6.80;5.50;;;;;;;10.96;100.00;101602.34;4963686;28;20421;-70
2023/10/24 06:30:35;;;;;;;6.93;5.23;;;;;;;11.00;100.00;101605.53;4959905;28;20541;-70
2023/10/24 06:33:01;;;;;;;7.90;5.60;;;;;;;11.14;100.00;101607.41;4962597;28;20466;-70
2023/10/24 06:35:27;;;;;;;8.20;5.77;;;;;;;11.04;100.00;101604.13;4964408;28;20422;-71
2023/10/24 06:37:52;;;;;;;7.17;5.40;;;;;;;11.03;100.00;101608.66;4961855;28;20439;-70
2023/10/24 06:40:18;;;;;;;10.00;7.00;;;;;;;10.96;100.00;101623.00;4965735;28;20209;-71
2023/10/24 06:42:44;;;;;;;8.57;5.63;;;;;;;10.94;100.00;101628.56;4962230;28;20555;-70
2023/10/24 06:45:11;;;;;;;8.07;6.00;;;;;;;11.11;100.00;101645.34;4965176;28;20193;-70
2023/10/24 06:47:37;;;;;;;10.63;6.43;;;;;;;11.04;100.00;101655.97;4962636;28;20792;-70
2023/10/24 06:50:03;;;;;;;8.57;5.63;;;;;;;11.18;100.00;101661.56;4962749;28;20521;-70
2023/10/24 06:52:30;;;;;;;8.10;6.67;;;;;;;10.97;100.00;101665.78;4962020;28;20492;-69
2023/10/24 06:54:56;;;;;;;7.93;5.63;;;;;;;11.05;100.00;101676.44;4962163;28;20791;-69
2023/10/24 06:57:22;;;;;;;7.33;5.67;;;;;;;10.92;100.00;101664.66;4966153;28;20432;-70
2023/10/24 06:59:47;;;;;;;8.27;6.03;;;;;;;11.03;100.00;101689.22;4961419;28;20466;-70
2023/10/24 07:02:13;;;;;;;7.30;5.50;;;;;;;11.21;100.00;101690.72;4965761;28;20271;-70
2023/10/24 07:04:38;;;;;;;8.60;6.33;;;;;;;11.00;100.00;101683.38;4962573;28;20182;-69
2023/10/24 07:07:04;;;;;;;8.00;5.70;;;;;;;11.03;100.00;101683.00;4959865;28;20551;-69
2023/10/24 07:09:29;;;;;;;8.70;6.33;;;;;;;11.00;100.00;101678.00;4965098;28;20695;-70
2023/10/24 07:11:54;;;;;;;9.40;6.30;;;;;;;11.16;100.00;101704.69;4964699;28;20187;-69
2023/10/24 07:14:20;;;;;;;7.93;6.23;;;;;;;10.97;100.00;101671.16;4970264;28;20197;-69
2023/10/24 07:16:46;;;;;;;8.40;5.50;;;;;;;11.20;100.00;101710.56;4969276;28;20726;-70
2023/10/24 07:19:13;;;;;;;9.23;6.77;;;;;;;11.17;100.00;101702.88;4967594;28;20791;-70
2023/10/24 07:21:39;;;;;;;12.40;5.90;;;;;;;11.00;100.00;101699.47;4966436;28;20221;-70
2023/10/24 07:24:05;;;;;;;9.40;6.00;;;;;;;11.17;100.00;101717.13;4966254;28;20438;-69
2023/10/24 07:26:30;;;;;;;7.93;6.20;;;;;;;11.09;100.00;101693.84;4969218;28;20179;-70
2023/10/24 07:28:56;;;;;;;6.53;5.07;;;;;;;11.06;100.00;101714.88;4968866;28;20214;-70
2023/10/24 07:31:21;;;;;;;11.87;6.73;;;;;;;11.06;100.00;101713.00;4969846;28;20333;-70
2023/10/24 07:33:46;;;;;;;9.27;6.87;;;;;;;11.25;100.00;101751.09;4968269;28;20179;-70
2023/10/24 07:36:12;;;;;;;8.47;6.07;;;;;;;11.27;100.00;101747.22;4966335;28;20618;-70
2023/10/24 07:38:38;;;;;;;7.80;6.13;;;;;;;11.21;100.00;101749.81;4967100;28;20289;-70
2023/10/24 07:41:04;;;;;;;12.73;5.90;;;;;;;10.94;100.00;101716.31;4964699;28;20631;-70
2023/10/24 07:43:30;;;;;;;7.60;5.90;;;;;;;11.21;100.00;101753.31;4965298;28;20504;-70
2023/10/24 07:45:55;;;;;;;7.47;5.57;;;;;;;11.19;100.00;101767.94;4971009;28;20202;-70
2023/10/24 07:48:21;;;;;;;8.00;6.30;;;;;;;11.21;100.00;101757.88;4968039;28;20569;-70
2023/10/24 07:50:50;;;;;;;10.37;6.17;;;;;;;11.14;100.00;101751.53;4964706;28;20261;-69
2023/10/24 07:53:16;;;;;;;7.33;5.97;;;;;;;11.06;100.00;101753.28;4967403;28;20186;-70
2023/10/24 07:55:42;;;;;;;9.40;5.47;;;;;;;11.17;100.00;101759.25;4976293;28;21123;-69
2023/10/24 07:58:08;;;;;;;8.57;5.80;;;;;;;10.94;100.00;101748.53;4975084;28;20492;-69
2023/10/24 08:00:34;;;;;;;9.70;5.37;;;;;;;11.23;100.00;101766.59;4964886;28;20485;-70
2023/10/24 08:02:59;;;;;;;8.10;5.50;;;;;;;10.92;100.00;101713.78;4967518;28;20484;-70
2023/10/24 08:05:25;;;;;;;6.63;4.90;;;;;;;11.23;100.00;101740.56;4966068;28;20200;-70
2023/10/24 08:07:50;;;;;;;8.00;5.17;;;;;;;11.00;100.00;101721.78;4966449;28;20182;-70
2023/10/24 08:10:16;;;;;;;8.27;5.47;;;;;;;11.21;100.00;101750.63;4966416;28;20213;-69
2023/10/24 08:12:41;;;;;;;7.27;5.27;;;;;;;10.84;100.00;101679.78;4963990;28;20190;-70
2023/10/24 08:15:08;;;;;;;9.20;5.83;;;;;;;11.26;100.00;101748.25;4964029;28;20261;-70
2023/10/24 08:17:33;;;;;;;7.17;5.33;;;;;;;11.36;100.00;101737.25;4965415;28;20269;-70
2023/10/24 08:19:59;;;;;;;8.10;5.23;;;;;;;11.24;100.00;101723.41;4969498;28;20473;-70
2023/10/24 08:22:24;;;;;;;9.20;6.70;;;;;;;11.24;100.00;101728.78;4964140;28;20246;-70
2023/10/24 08:24:49;;;;;;;8.47;5.07;;;;;;;11.29;100.00;101725.56;4966873;28;20724;-70
2023/10/24 08:27:15;;;;;;;7.93;5.33;;;;;;;11.29;100.00;101717.50;4966504;28;20191;-70
2023/10/24 08:29:40;;;;;;;7.20;5.27;;;;;;;11.29;100.00;101696.03;4967352;28;20233;-70
2023/10/24 08:32:07;;;;;;;11.50;6.13;;;;;;;11.24;100.00;101712.69;4966746;28;20278;-70
2023/10/24 08:34:36;;;;;;;8.33;5.53;;;;;;;11.29;100.00;101704.09;4963899;28;20178;-70
2023/10/24 08:37:02;;;;;;;6.10;4.47;;;;;;;11.46;100.00;101729.78;4967961;28;20437;-70
2023/10/24 08:39:27;;;;;;;7.40;5.50;;;;;;;11.38;100.00;101702.97;4965497;28;20483;-70
2023/10/24 08:41:57;;;;;;;8.70;5.53;;;;;;;11.34;100.00;101688.25;4966209;28;20798;-69
2023/10/24 08:44:24;;;;;;;7.17;5.50;;;;;;;11.43;100.00;101702.44;4965734;28;20190;-70
2023/10/24 08:46:50;;;;;;;9.13;6.00;;;;;;;11.49;100.00;101720.50;4964880;28;20431;-70
2023/10/24 08:49:19;;;;;;;9.97;6.00;;;;;;;11.51;100.00;101716.63;4967266;28;20517;-70
2023/10/24 08:51:45;;;;;;;8.73;5.70;;;;;;;11.43;100.00;101691.69;4966330;28;20197;-70
2023/10/24 08:54:11;;;;;;;8.67;5.70;;;;;;;11.49;100.00;101707.09;4963765;28;20441;-71
2023/10/24 08:56:38;;;;;;;7.93;5.83;;;;;;;11.58;100.00;101721.28;4966240;28;20430;-69
2023/10/24 08:59:09;;;;;;;7.80;5.97;;;;;;;11.65;100.00;101731.06;4966537;28;20557;-70
2023/10/24 09:01:40;;;;;;;8.43;5.57;;;;;;;11.25;100.00;101674.09;4965622;28;20433;-69
2023/10/24 09:04:05;;;;;;;6.80;5.17;;;;;;;11.57;100.00;101703.47;4964155;28;20429;-69
2023/10/24 09:06:33;;;;;;;6.13;5.03;;;;;;;11.52;100.00;101706.72;4963976;28;20449;-69
2023/10/24 09:08:59;;;;;;;8.00;5.37;;;;;;;11.47;100.00;101685.75;4966325;28;20207;-70
2023/10/24 09:11:24;;;;;;;6.50;4.77;;;;;;;11.48;100.00;101678.53;4969387;28;21122;-70
2023/10/24 09:13:50;;;;;;;8.73;5.73;;;;;;;11.46;100.00;101688.66;4964276;28;20214;-69
2023/10/24 09:16:16;;;;;;;7.67;5.40;;;;;;;11.44;100.00;101661.13;4967894;28;20190;-70
2023/10/24 09:18:41;;;;;;;8.33;5.60;;;;;;;11.38;100.00;101641.22;4976001;28;20296;-69
2023/10/24 09:21:08;;;;;;;8.93;5.40;;;;;;;11.37;100.00;101644.91;4964086;28;20453;-69
2023/10/24 09:23:35;;;;;;;7.87;5.37;;;;;;;11.18;100.00;101613.22;4962443;28;20206;-69
2023/10/24 09:26:07;;;;;;;7.43;5.57;;;;;;;11.31;100.00;101626.81;4966393;28;20459;-70
2023/10/24 09:28:33;;;;;;;8.70;5.80;;;;;;;11.38;100.00;101626.94;4961049;28;21116;-70
2023/10/24 09:30:59;;;;;;;9.57;6.30;;;;;;;11.35;100.00;101622.78;4966037;28;20434;-70
2023/10/24 09:33:28;;;;;;;6.93;5.47;;;;;;;11.28;100.00;101585.09;4965973;28;20953;-69
2023/10/24 09:35:55;;;;;;;7.97;5.57;;;;;;;11.40;100.00;101611.47;4978142;28;20918;-70
2023/10/24 09:38:23;;;;;;;7.80;5.50;;;;;;;11.35;100.00;101611.19;4964950;28;20433;-69
2023/10/24 09:40:49;;;;;;;9.00;5.70;;;;;;;11.39;100.00;101604.44;4964254;28;20540;-70
2023/10/24 09:43:22;;;;;;;7.30;5.30;;;;;;;11.41;100.00;101597.84;4966645;28;20955;-70
2023/10/24 09:45:56;;;;;;;7.37;5.70;;;;;;;11.43;100.00;101595.81;4962123;28;20449;-70
2023/10/24 09:48:23;;;;;;;8.57;5.10;;;;;;;11.30;100.00;101564.22;4960412;28;20469;-70
2023/10/24 09:50:51;;;;;;;7.20;4.90;;;;;;;11.60;100.00;101577.66;4963984;28;20469;-70
2023/10/24 09:53:18;;;;;;;8.73;5.90;;;;;;;11.57;100.00;101555.69;4981576;28;20430;-70
2023/10/24 09:55:49;;;;;;;8.40;6.10;;;;;;;11.62;100.00;101564.84;4979439;28;20948;-70
2023/10/24 09:58:17;;;;;;;11.40;6.23;;;;;;;11.76;100.00;101542.50;4964540;28;20821;-70
2023/10/24 10:00:43;;;;;;;9.70;5.83;;;;;;;11.49;100.00;101487.63;4963785;28;20527;-69
2023/10/24 10:03:09;;;;;;;9.27;6.27;;;;;;;11.61;100.00;101514.81;4958810;28;20995;-69
2023/10/24 10:05:36;;;;;;;10.43;7.27;;;;;;;11.56;100.00;101508.34;4961021;28;20755;-70
2023/10/24 10:08:04;;;;;;;12.10;6.83;;;;;;;11.67;100.00;101491.75;4958380;28;20504;-70
2023/10/24 10:10:31;;;;;;;7.93;5.90;;;;;;;11.49;100.00;101460.75;4963443;28;20450;-70
2023/10/24 10:13:03;;;;;;;9.47;7.77;;;;;;;11.56;100.00;101463.50;4964253;28;20437;-71
2023/10/24 10:15:38;;;;;;;8.23;6.63;;;;;;;11.56;100.00;101442.00;4962934;28;20449;-70
2023/10/24 10:18:24;;;;;;;8.53;5.90;;;;;;;11.56;100.00;101425.88;4960562;28;20445;-70
2023/10/24 10:21:05;;;;;;;8.93;7.07;;;;;;;11.34;100.00;101368.66;4966737;28;20516;-71
2023/10/24 10:23:52;;;;;;;7.20;5.67;;;;;;;11.54;100.00;101388.50;4958491;28;20963;-72
2023/10/24 10:26:46;;;;;;;7.60;6.00;;;;;;;11.54;100.00;101380.44;4961589;28;20958;-70
2023/10/24 10:29:50;;;;;;;8.20;5.90;;;;;;;11.71;100.00;101377.47;4955351;28;20473;-71
2023/10/24 10:32:34;;;;;;;8.53;6.10;;;;;;;11.53;100.00;101377.91;4960368;28;20437;-70
2023/10/24 10:34:59;;;;;;;10.00;7.03;;;;;;;11.12;100.00;101318.63;4956086;28;20450;-70
2023/10/24 10:37:30;;;;;;;7.40;5.87;;;;;;;11.59;100.00;101362.88;4963725;28;20844;-71
2023/10/24 10:40:14;;;;;;;8.70;6.20;;;;;;;11.51;100.00;101367.38;4963236;28;20265;-70
2023/10/24 10:42:50;;;;;;;7.07;5.57;;;;;;;11.40;100.00;101322.22;4959528;28;20438;-70
2023/10/24 10:45:29;;;;;;;6.90;5.77;;;;;;;11.51;100.00;101337.81;4964023;28;20537;-70
2023/10/24 10:47:57;;;;;;;8.00;6.27;;;;;;;11.24;100.00;101287.56;4963988;28;20816;-72
2023/10/24 10:50:31;;;;;;;7.10;5.70;;;;;;;11.54;100.00;101305.19;4985435;28;20581;-71
2023/10/24 10:53:00;;;;;;;7.07;5.90;;;;;;;11.63;100.00;101305.91;4982945;28;20431;-71
2023/10/24 10:55:55;;;;;;;9.13;6.23;;;;;;;11.65;100.00;101300.31;4966737;28;20469;-71
2023/10/24 10:58:29;;;;;;;10.00;6.03;;;;;;;11.66;100.00;101300.13;4965648;28;20445;-70
2023/10/24 11:00:59;;;;;;;7.53;5.73;;;;;;;11.64;100.00;101294.09;4965221;28;20487;-71
2023/10/24 11:03:44;;;;;;;7.30;5.90;;;;;;;11.53;100.00;101283.88;4967087;28;20430;-70
2023/10/24 11:06:12;;;;;;;7.77;6.20;;;;;;;11.59;100.00;101263.47;4966247;28;20963;-70
2023/10/24 11:08:37;;;;;;;8.23;5.80;;;;;;;11.59;100.00;101276.91;4965224;28;20443;-70
2023/10/24 11:11:07;;;;;;;7.93;6.30;;;;;;;11.57;100.00;101260.16;4980795;28;20437;-70
2023/10/24 11:13:48;;;;;;;7.30;5.30;;;;;;;11.45;100.00;101238.34;4969121;28;20711;-70
2023/10/24 11:16:14;;;;;;;16.00;5.20;;;;;;;11.39;100.00;101207.72;4966836;28;20528;-70